Data for 01/02/2016

Time Sea-Level Adjusted Pressure Absolute Pressure Temperature Relative Humidity Dew Point   
(mb) (inHg) (mb) (inHg) (C) (F) (%) (C) (F)
00:05 1027 30.33 856 25.28 -15.6 3.9 84 -17.8 0
00:10 1027 30.33 856 25.28 -15.5 4.1 85 -17.4 0.6
00:15 1027 30.33 856 25.28 -15.3 4.4 87 -17 1.4
00:20 1027 30.33 856 25.28 -14.9 5.2 86 -16.7 1.9
00:25 1027 30.33 856 25.28 -14.6 5.8 86 -16.5 2.3
00:30 1027 30.33 856 25.28 -14.4 6 85 -16.4 2.4
00:35 1027 30.33 856 25.28 -14.5 5.9 85 -16.5 2.3
00:40 1027 30.33 856 25.28 -14.4 6 85 -16.4 2.4
00:45 1027 30.33 856 25.28 -14.5 5.9 86 -16.4 2.5
00:50 1027 30.33 856 25.28 -14.7 5.6 86 -16.5 2.3
00:55 1027 30.33 856 25.28 -14.7 5.6 86 -16.6 2.2
01:00 1027 30.33 856 25.28 -14.6 5.7 86 -16.5 2.3
01:05 1027 30.33 856 25.28 -14.7 5.6 84 -16.9 1.7
01:10 1027 30.33 856 25.28 -15 5.1 85 -17 1.5
01:15 1027 30.33 856 25.28 -15.1 4.8 85 -17.1 1.2
01:20 1027 30.33 856 25.28 -15.1 4.8 86 -17 1.5
01:25 1027 30.33 856 25.28 -15.2 4.7 86 -16.9 1.5
01:30 1027 30.33 856 25.28 -15.2 4.7 86 -17 1.4
01:35 1027 30.33 856 25.28 -14.7 5.5 86 -16.6 2.2
01:40 1027 30.33 856 25.28 -14.4 6 85 -16.4 2.4
01:45 1027 30.33 856 25.28 -14.6 5.8 86 -16.5 2.4
01:50 1027 30.33 856 25.28 -14.8 5.4 86 -16.7 1.9
01:55 1027 30.33 856 25.28 -14.9 5.1 87 -16.6 2
02:00 1027 30.33 856 25.28 -14.9 5.2 86 -16.7 1.9
02:05 1027 30.33 856 25.28 -15.2 4.7 84 -17.3 0.9
02:10 1027 30.33 856 25.28 -15.3 4.5 85 -17.3 0.8
02:15 1027 30.33 856 25.28 -15.4 4.4 85 -17.4 0.7
02:20 1027 30.33 856 25.28 -15.4 4.3 85 -17.4 0.8
02:25 1027 30.33 856 25.28 -15.4 4.2 86 -17.3 0.9
02:30 1026 30.3 856 25.28 -15.2 4.7 85 -17.2 1
02:35 1026 30.3 856 25.28 -15 4.9 83 -17.3 0.9
02:40 1026 30.3 856 25.28 -15.2 4.6 83 -17.5 0.5
02:45 1026 30.3 856 25.28 -15.3 4.5 83 -17.6 0.3
02:50 1026 30.3 856 25.28 -15.4 4.2 84 -17.6 0.3
02:55 1026 30.3 856 25.28 -15.4 4.3 86 -17.3 0.9
03:00 1026 30.3 856 25.28 -15.1 4.8 86 -16.9 1.5
03:05 1026 30.3 856 25.28 -15.1 4.8 86 -16.9 1.6
03:10 1026 30.3 855 25.25 -15 5.1 88 -16.6 2.2
03:15 1026 30.3 855 25.25 -14.7 5.5 85 -16.7 2
03:20 1026 30.3 856 25.28 -14.7 5.5 86 -16.6 2.2
03:25 1026 30.3 856 25.28 -14.4 6 84 -16.5 2.3
03:30 1026 30.3 856 25.28 -14.7 5.5 86 -16.6 2.1
03:35 1026 30.3 856 25.28 -14.4 6 86 -16.3 2.6
03:40 1026 30.3 856 25.28 -14.4 6 85 -16.5 2.4
03:45 1026 30.3 856 25.28 -14.8 5.3 84 -16.9 1.6
03:50 1026 30.3 856 25.28 -14.8 5.3 86 -16.6 2.1
03:55 1026 30.3 856 25.28 -14.5 5.9 86 -16.3 2.6
04:00 1026 30.3 856 25.28 -14.7 5.6 85 -16.7 1.9
04:05 1026 30.3 856 25.28 -14.8 5.3 87 -16.5 2.2
04:10 1026 30.3 855 25.25 -14.5 5.9 88 -16.1 3
04:15 1026 30.3 855 25.25 -14.3 6.2 86 -16.2 2.9
04:20 1026 30.3 855 25.25 -14.4 6.1 86 -16.2 2.8
04:25 1026 30.3 855 25.25 -14.5 5.9 86 -16.3 2.6
04:30 1026 30.3 855 25.25 -14.5 6 87 -16.2 2.9
04:35 1026 30.3 855 25.25 -14.2 6.4 85 -16.3 2.7
04:40 1026 30.3 855 25.25 -14.6 5.7 87 -16.3 2.6
04:45 1026 30.3 855 25.25 -14.5 5.8 87 -16.3 2.7
04:50 1026 30.3 855 25.25 -14.2 6.4 88 -15.9 3.4
04:55 1026 30.3 855 25.25 -13.8 7.2 87 -15.5 4.1
05:00 1026 30.3 855 25.25 -13.8 7.1 85 -15.9 3.4
05:05 1026 30.3 855 25.25 -14.1 6.7 85 -16.1 3.1
05:10 1026 30.3 855 25.25 -14.5 5.9 86 -16.3 2.6
05:15 1026 30.3 855 25.25 -14.6 5.8 88 -16.2 2.8
05:20 1026 30.3 855 25.25 -14.6 5.7 89 -16.1 3
05:25 1026 30.3 855 25.25 -14.9 5.3 87 -16.6 2.1
05:30 1026 30.3 855 25.25 -14.8 5.4 89 -16.2 2.9
05:35 1026 30.3 855 25.25 -14.7 5.6 86 -16.5 2.3
05:40 1026 30.3 855 25.25 -14.9 5.2 87 -16.5 2.2
05:45 1026 30.3 855 25.25 -14.8 5.4 87 -16.5 2.3
05:50 1026 30.3 855 25.25 -14.8 5.4 86 -16.6 2.2
05:55 1026 30.3 855 25.25 -14.8 5.3 86 -16.7 1.9
06:00 1026 30.3 855 25.25 -14.8 5.3 86 -16.7 2
06:05 1026 30.3 855 25.25 -14.7 5.6 86 -16.6 2.1
06:10 1025 30.27 855 25.25 -14.7 5.6 86 -16.5 2.3
06:15 1025 30.27 855 25.25 -14.7 5.6 86 -16.5 2.4
06:20 1026 30.3 855 25.25 -14.6 5.7 86 -16.5 2.3
06:25 1026 30.3 855 25.25 -14.8 5.3 86 -16.7 2
06:30 1026 30.3 855 25.25 -14.7 5.6 87 -16.4 2.5
06:35 1025 30.27 855 25.25 -14.4 6 88 -16.1 3.1
06:40 1025 30.27 855 25.25 -14 6.8 86 -15.8 3.5
06:45 1026 30.3 855 25.25 -14.1 6.6 87 -15.8 3.5
06:50 1025 30.27 855 25.25 -14.3 6.2 87 -16 3.2
06:55 1025 30.27 855 25.25 -14.3 6.2 87 -16 3.2
07:00 1025 30.27 855 25.25 -14.1 6.6 87 -15.8 3.6
07:05 1025 30.27 855 25.25 -14 6.8 87 -15.7 3.7
07:10 1025 30.27 855 25.25 -14 6.8 86 -15.8 3.5
07:15 1025 30.27 855 25.25 -14.1 6.7 86 -15.9 3.4
07:20 1025 30.27 855 25.25 -14.2 6.5 86 -16 3.2
07:25 1025 30.27 855 25.25 -14.2 6.4 86 -16.1 3
07:30 1025 30.27 855 25.25 -14.1 6.5 86 -16.1 3.1
07:35 1025 30.27 855 25.25 -14.2 6.4 85 -16.3 2.7
07:40 1025 30.27 855 25.25 -14.2 6.5 82 -16.5 2.2
07:45 1025 30.27 855 25.25 -14.3 6.2 85 -16.4 2.5
07:50 1025 30.27 855 25.25 -14.1 6.6 83 -16.3 2.6
07:55 1025 30.27 855 25.25 -14.1 6.6 83 -16.4 2.5
08:00 1025 30.27 855 25.25 -14.2 6.4 84 -16.4 2.4
08:05 1025 30.27 855 25.25 -14.3 6.3 80 -17 1.3
08:10 1025 30.27 855 25.25 -14.6 5.6 79 -17.5 0.6
08:15 1025 30.27 855 25.25 -15 4.9 81 -17.7 0.2
08:20 1025 30.27 855 25.25 -15.5 4.2 84 -17.5 0.4
08:25 1025 30.27 855 25.25 -15.7 3.8 85 -17.7 0.2
08:30 1025 30.27 855 25.25 -15.9 3.4 85 -17.8 -0.1
08:35 1025 30.27 855 25.25 -16 3.2 85 -18 -0.3
08:40 1025 30.27 855 25.25 -16.2 2.9 85 -18.1 -0.6
08:45 1025 30.27 855 25.25 -16.3 2.7 86 -18.1 -0.6
08:50 1025 30.27 855 25.25 -16.3 2.7 85 -18.2 -0.8
08:55 1025 30.27 855 25.25 -16.3 2.7 85 -18.2 -0.7
09:00 1025 30.27 855 25.25 -16.1 3.1 86 -17.9 -0.1
09:05 1025 30.27 855 25.25 -15.8 3.5 86 -17.7 0.2
09:10 1025 30.27 855 25.25 -15.9 3.5 86 -17.7 0.2
09:15 1026 30.3 855 25.25 -15.9 3.4 85 -17.8 -0.1
09:20 1026 30.3 855 25.25 -16.2 2.9 85 -18.2 -0.7
09:25 1025 30.27 855 25.25 -16.3 2.7 86 -18.1 -0.7
09:30 1025 30.27 855 25.25 -15.9 3.3 87 -17.7 0.1
09:35 1026 30.3 855 25.25 -15.6 3.9 86 -17.5 0.5
09:40 1026 30.3 855 25.25 -15.2 4.7 85 -17.1 1.2
09:45 1026 30.3 855 25.25 -15 5 84 -17.1 1.2
09:50 1026 30.3 855 25.25 -14.9 5.3 85 -16.9 1.6
09:55 1026 30.3 855 25.25 -14.9 5.1 83 -17.2 1.1
10:00 1026 30.3 855 25.25 -15.3 4.5 83 -17.6 0.4
10:05 1026 30.3 855 25.25 -15.2 4.7 83 -17.5 0.6
10:10 1026 30.3 855 25.25 -14.8 5.3 83 -17.1 1.2
10:15 1026 30.3 855 25.25 -14.4 6.1 83 -16.6 2.1
10:20 1026 30.3 855 25.25 -14 6.9 81 -16.6 2.1
10:25 1026 30.3 855 25.25 -13.5 7.7 80 -16.2 2.8
10:30 1026 30.3 855 25.25 -12.9 8.7 77 -16.2 2.8
10:35 1026 30.3 855 25.25 -12.4 9.6 77 -15.7 3.7
10:40 1026 30.3 855 25.25 -11.9 10.5 75 -15.5 4.1
10:45 1026 30.3 855 25.25 -11.7 10.9 75 -15.4 4.3
10:50 1026 30.3 855 25.25 -11.8 10.8 73 -15.7 3.7
10:55 1026 30.3 856 25.28 -12.2 10.1 74 -15.9 3.3
11:00 1026 30.3 856 25.28 -12.3 9.8 75 -15.9 3.3
11:05 1026 30.3 856 25.28 -12.2 10.1 75 -15.8 3.6
11:10 1026 30.3 856 25.28 -11.8 10.7 73 -15.7 3.7
11:15 1026 30.3 856 25.28 -11.7 11 73 -15.6 3.9
11:20 1026 30.3 856 25.28 -11 12.2 71 -15.4 4.3
11:25 1026 30.3 856 25.28 -10.5 13.2 68 -15.2 4.6
11:30 1026 30.3 856 25.28 -10.1 13.9 67 -15 5
11:35 1027 30.33 856 25.28 -10.6 12.9 69 -15.2 4.6
11:40 1027 30.33 856 25.28 -10.7 12.7 70 -15.2 4.6
11:45 1027 30.33 856 25.28 -11 12.3 71 -15.2 4.6
11:50 1027 30.33 856 25.28 -10.9 12.3 70 -15.4 4.2
11:55 1027 30.33 856 25.28 -10.5 13.2 69 -15.1 4.7
12:00 1027 30.33 856 25.28 -9.8 14.4 65 -15.1 4.8
12:05 1026 30.3 856 25.28 -9.3 15.4 65 -14.7 5.5
12:10 1026 30.3 856 25.28 -9.4 15 67 -14.5 5.9
12:15 1026 30.3 856 25.28 -9.4 15.2 64 -15 4.9
12:20 1026 30.3 856 25.28 -9.3 15.2 66 -14.6 5.6
12:25 1026 30.3 855 25.25 -9.5 15 65 -14.9 5.1
12:30 1026 30.3 855 25.25 -9 15.9 63 -14.8 5.4
12:35 1026 30.3 855 25.25 -8.7 16.3 63 -14.7 5.6
12:40 1026 30.3 855 25.25 -8.6 16.4 62 -14.7 5.6
12:45 1026 30.3 855 25.25 -8.6 16.6 62 -14.6 5.7
12:50 1026 30.3 855 25.25 -8.4 16.9 62 -14.5 5.9
12:55 1026 30.3 855 25.25 -8.4 16.9 62 -14.4 6
13:00 1026 30.3 855 25.25 -8.6 16.6 62 -14.6 5.7
13:05 1026 30.3 855 25.25 -8.7 16.3 63 -14.6 5.7
13:10 1026 30.3 855 25.25 -8.4 16.8 62 -14.5 5.8
13:15 1026 30.3 855 25.25 -8.1 17.4 61 -14.3 6.3
13:20 1026 30.3 855 25.25 -8.1 17.4 61 -14.4 6
13:25 1026 30.3 855 25.25 -8.1 17.5 60 -14.6 5.8
13:30 1026 30.3 855 25.25 -7.7 18.1 59 -14.4 6
13:35 1026 30.3 855 25.25 -7.6 18.4 58 -14.5 5.9
13:40 1026 30.3 855 25.25 -7.3 18.8 58 -14.3 6.2
13:45 1026 30.3 855 25.25 -7.5 18.5 57 -14.7 5.6
13:50 1025 30.27 855 25.25 -8.2 17.2 59 -14.9 5.3
13:55 1025 30.27 855 25.25 -7.9 17.8 58 -14.8 5.4
14:00 1025 30.27 855 25.25 -7.5 18.6 57 -14.6 5.8
14:05 1025 30.27 855 25.25 -7.8 17.9 58 -14.6 5.7
14:10 1025 30.27 855 25.25 -7.6 18.3 56 -15 5
14:15 1025 30.27 855 25.25 -7 19.4 54 -14.9 5.2
14:20 1025 30.27 855 25.25 -6.9 19.6 55 -14.5 6
14:25 1025 30.27 855 25.25 -7.1 19.2 55 -14.8 5.4
14:30 1025 30.27 854 25.22 -7.2 19 55 -14.8 5.3
14:35 1025 30.27 854 25.22 -6.8 19.7 54 -14.8 5.4
14:40 1025 30.27 854 25.22 -6.9 19.5 54 -14.8 5.3
14:45 1025 30.27 854 25.22 -6.9 19.6 54 -14.7 5.5
14:50 1025 30.27 854 25.22 -7.2 19.1 57 -14.4 6
14:55 1025 30.27 854 25.22 -7.5 18.5 56 -14.8 5.4
15:00 1025 30.27 854 25.22 -7.2 19 55 -14.8 5.4
15:05 1025 30.27 854 25.22 -6.8 19.8 52 -15 5
15:10 1025 30.27 854 25.22 -6.4 20.5 52 -14.6 5.7
15:15 1025 30.27 854 25.22 -6.6 20.2 54 -14.3 6.2
15:20 1025 30.27 854 25.22 -6.9 19.6 54 -14.7 5.6
15:25 1025 30.27 854 25.22 -6.6 20.1 53 -14.8 5.4
15:30 1025 30.27 854 25.22 -6.4 20.5 52 -14.7 5.5
15:35 1025 30.27 854 25.22 -6.7 19.9 54 -14.6 5.7
15:40 1025 30.27 854 25.22 -7.6 18.3 55 -15.1 4.8
15:45 1025 30.27 854 25.22 -7.3 18.9 54 -15 5
15:50 1025 30.27 854 25.22 -7.3 19 54 -15 4.9
15:55 1025 30.27 854 25.22 -7 19.4 54 -14.8 5.4
16:00 1025 30.27 854 25.22 -6.7 19.9 54 -14.6 5.7
16:05 1025 30.27 854 25.22 -7 19.5 55 -14.6 5.7
16:10 1025 30.27 854 25.22 -7.1 19.3 54 -14.8 5.3
16:15 1025 30.27 854 25.22 -7.2 19 55 -14.8 5.3
16:20 1025 30.27 854 25.22 -7.5 18.5 56 -14.8 5.4
16:25 1025 30.27 854 25.22 -7.4 18.6 55 -15 5
16:30 1025 30.27 854 25.22 -7.1 19.2 54 -15 5.1
16:35 1025 30.27 854 25.22 -7.5 18.6 56 -14.9 5.2
16:40 1025 30.27 854 25.22 -7.4 18.7 54 -15.1 4.8
16:45 1025 30.27 854 25.22 -7.4 18.6 56 -14.9 5.2
16:50 1025 30.27 854 25.22 -7.4 18.7 54 -15.3 4.5
16:55 1025 30.27 855 25.25 -7.4 18.7 54 -15.2 4.6
17:00 1025 30.27 855 25.25 -7.7 18.1 55 -15.2 4.6
17:05 1025 30.27 855 25.25 -8.3 17.1 57 -15.4 4.4
17:10 1025 30.27 855 25.25 -8.5 16.7 58 -15.4 4.3
17:15 1025 30.27 855 25.25 -9 15.7 59 -15.6 3.9
17:20 1025 30.27 855 25.25 -9.3 15.3 60 -15.8 3.6
17:25 1025 30.27 855 25.25 -9.6 14.8 61 -15.7 3.7
17:30 1025 30.27 855 25.25 -9.8 14.4 62 -15.8 3.6
17:35 1025 30.27 854 25.22 -10 14 63 -15.7 3.7
17:40 1025 30.27 854 25.22 -10.4 13.4 64 -15.9 3.4
17:45 1025 30.27 854 25.22 -10.8 12.6 67 -15.8 3.5
17:50 1025 30.27 854 25.22 -11 12.2 68 -15.9 3.4
17:55 1025 30.27 854 25.22 -11.2 11.8 69 -15.9 3.4
18:00 1025 30.27 854 25.22 -11.4 11.6 69 -15.9 3.3
18:05 1025 30.27 854 25.22 -11.3 11.6 69 -15.9 3.4
18:10 1025 30.27 854 25.22 -11.3 11.6 70 -15.8 3.6
18:15 1025 30.27 854 25.22 -11.4 11.6 71 -15.7 3.8
18:20 1025 30.27 854 25.22 -11.5 11.2 71 -15.7 3.7
18:25 1025 30.27 854 25.22 -11.9 10.6 73 -15.8 3.6
18:30 1025 30.27 854 25.22 -11.8 10.7 73 -15.8 3.6
18:35 1025 30.27 854 25.22 -11.7 10.9 73 -15.6 3.8
18:40 1025 30.27 854 25.22 -11.7 11 74 -15.5 4.1
18:45 1025 30.27 854 25.22 -11.5 11.3 73 -15.5 4.1
18:50 1025 30.27 854 25.22 -11.5 11.4 73 -15.4 4.3
18:55 1025 30.27 854 25.22 -11.5 11.3 73 -15.5 4.1
19:00 1025 30.27 854 25.22 -11.4 11.4 73 -15.3 4.5
19:05 1025 30.27 854 25.22 -11.1 12 73 -15.1 4.9
19:10 1025 30.27 854 25.22 -11 12.2 72 -15.1 4.9
19:15 1025 30.27 854 25.22 -11 12.3 72 -15.1 4.8
19:20 1025 30.27 854 25.22 -10.9 12.4 70 -15.3 4.5
19:25 1025 30.27 854 25.22 -10.9 12.3 71 -15.3 4.5
19:30 1025 30.27 854 25.22 -11.2 11.9 69 -15.7 3.7
19:35 1025 30.27 854 25.22 -11.9 10.6 73 -15.8 3.5
19:40 1025 30.27 854 25.22 -12.4 9.6 74 -16.1 3
19:45 1025 30.27 854 25.22 -12.8 9 78 -15.9 3.4
19:50 1025 30.27 854 25.22 -12.8 8.9 78 -15.9 3.5
19:55 1025 30.27 854 25.22 -12.9 8.9 80 -15.7 3.8
20:00 1025 30.27 854 25.22 -12.6 9.3 79 -15.6 3.9
20:05 1025 30.27 854 25.22 -12.5 9.4 79 -15.5 4.1
20:10 1025 30.27 854 25.22 -12.5 9.5 79 -15.4 4.3
20:15 1025 30.27 854 25.22 -12.4 9.7 80 -15.1 4.9
20:20 1025 30.27 854 25.22 -11.8 10.7 72 -15.8 3.5
20:25 1025 30.27 854 25.22 -12.5 9.4 80 -15.3 4.4
20:30 1025 30.27 854 25.22 -12 10.5 80 -14.7 5.5
20:35 1025 30.27 854 25.22 -11 12.2 76 -14.4 6.1
20:40 1025 30.27 854 25.22 -10.8 12.6 76 -14.3 6.3
20:45 1025 30.27 854 25.22 -10.6 12.9 74 -14.3 6.2
20:50 1025 30.27 854 25.22 -10.5 13.1 74 -14.3 6.2
20:55 1025 30.27 854 25.22 -11 12.2 76 -14.5 6
21:00 1025 30.27 854 25.22 -11 12.3 76 -14.3 6.2
21:05 1025 30.27 854 25.22 -10.8 12.6 74 -14.6 5.7
21:10 1025 30.27 854 25.22 -11.4 11.5 75 -15 5.1
21:15 1025 30.27 854 25.22 -12.5 9.5 77 -15.7 3.7
21:20 1025 30.27 854 25.22 -13.1 8.5 80 -15.7 3.7
21:25 1025 30.27 854 25.22 -12.6 9.3 78 -15.7 3.7
21:30 1025 30.27 854 25.22 -12.6 9.3 77 -15.9 3.4
21:35 1025 30.27 854 25.22 -12.8 9 78 -15.9 3.4
21:40 1025 30.27 854 25.22 -12.7 9.1 81 -15.4 4.3
21:45 1025 30.27 854 25.22 -12.1 10.2 80 -14.8 5.3
21:50 1025 30.27 854 25.22 -11.1 12 74 -14.9 5.2
21:55 1025 30.27 854 25.22 -11 12.2 75 -14.6 5.8
22:00 1025 30.27 854 25.22 -10 14 71 -14.4 6.1
22:05 1025 30.27 854 25.22 -9.9 14.1 71 -14.3 6.3
22:10 1025 30.27 854 25.22 -10 14 71 -14.2 6.4
22:15 1025 30.27 854 25.22 -9.9 14.1 71 -14.3 6.2
22:20 1025 30.27 854 25.22 -9.8 14.3 69 -14.4 6.1
22:25 1025 30.27 854 25.22 -10.3 13.5 70 -14.7 5.5
22:30 1025 30.27 854 25.22 -11.6 11.1 73 -15.5 4.1
22:35 1025 30.27 854 25.22 -12.6 9.3 77 -15.8 3.5
22:40 1025 30.27 854 25.22 -13.1 8.4 85 -15.1 4.8
22:45 1025 30.27 854 25.22 -13 8.7 78 -16.1 3.1
22:50 1025 30.27 854 25.22 -13.2 8.3 81 -15.8 3.6
22:55 1025 30.27 854 25.22 -13 8.6 80 -15.8 3.6
23:00 1025 30.27 854 25.22 -13.1 8.5 77 -16.3 2.7
23:05 1025 30.27 854 25.22 -13.5 7.7 77 -16.7 2
23:10 1025 30.27 854 25.22 -13.9 7 79 -16.9 1.6
23:15 1025 30.27 854 25.22 -14.2 6.5 79 -17 1.4
23:20 1025 30.27 854 25.22 -14.4 6.2 80 -17.1 1.2
23:25 1025 30.27 854 25.22 -14.5 5.9 81 -17.1 1.2
23:30 1025 30.27 854 25.22 -14.7 5.6 81 -17.3 0.9
23:35 1025 30.27 854 25.22 -14.9 5.1 81 -17.5 0.6
23:40 1025 30.27 854 25.22 -15.2 4.7 85 -17.2 1
23:45 1025 30.27 854 25.22 -15 4.9 84 -17.2 1.1
23:50 1025 30.27 855 25.25 -15 4.9 83 -17.3 0.8
23:55 1025 30.27 855 25.25 -15 5.1 84 -17.1 1.3
24:00 1025 30.27 855 25.25 -14.7 5.6 85 -16.7 1.9